< < Back
Terminal Aerodrome Forecast


Current Version              Previous Versions:   1  2  3  4  5  6  7  8  9  

Terminal Aerodrome Forecast

217
FTUS44 KMRX 221723
TAFCHA
TAF
KCHA 221723Z 2218/2318 VRB04KT P6SM SCT050 BKN250
     FM222000 VRB04KT P6SM VCTS SCT050CB BKN250
     FM230300 00000KT P6SM SCT100 BKN200
     FM231500 VRB04KT P6SM SCT040 BKN250=

Latest METAR

596
SAUS80 KWBC 230900 CCA
MTRCHA
METAR KCHA 230853Z AUTO 00000KT 10SM CLR 26/21 A3000 RMK AO2 SLP150
T02610211 56006 $


USA.gov is the U.S. government's official web portal to all federal, state and local government web resources and services.